createdAt,value
2018-09-06T00:00:07.118Z,23.7
2018-09-06T00:01:12.740Z,23.7
2018-09-06T00:02:17.622Z,23.7
2018-09-06T00:03:22.778Z,23.7
2018-09-06T00:04:28.825Z,23.7
2018-09-06T00:05:34.299Z,23.7
2018-09-06T00:06:40.199Z,23.7
2018-09-06T00:07:45.149Z,23.7
2018-09-06T00:08:49.212Z,23.7
2018-09-06T00:09:54.344Z,23.7
2018-09-06T00:10:59.594Z,23.7
2018-09-06T00:12:04.771Z,23.7
2018-09-06T00:13:09.943Z,23.7
2018-09-06T00:14:14.859Z,23.7
2018-09-06T00:15:20.377Z,23.7
2018-09-06T00:16:26.455Z,23.7
2018-09-06T00:17:31.905Z,23.7
2018-09-06T00:18:37.465Z,23.7
2018-09-06T00:19:42.634Z,23.7
2018-09-06T00:20:47.948Z,23.7
2018-09-06T00:21:53.391Z,23.7
2018-09-06T00:22:58.831Z,23.7
2018-09-06T00:24:04.341Z,23.7
2018-09-06T00:25:10.046Z,23.7
2018-09-06T00:26:15.515Z,23.7
2018-09-06T00:27:20.101Z,23.7
2018-09-06T00:28:25.360Z,23.7
2018-09-06T00:29:30.236Z,23.7
2018-09-06T00:30:35.841Z,23.7
2018-09-06T00:31:41.364Z,23.7
2018-09-06T00:32:46.529Z,23.7
2018-09-06T00:33:51.508Z,23.7
2018-09-06T00:34:55.839Z,23.7
2018-09-06T00:36:01.316Z,23.7
2018-09-06T00:37:06.178Z,23.7
2018-09-06T00:38:11.626Z,23.7
2018-09-06T00:39:17.069Z,23.7
2018-09-06T00:40:22.867Z,23.7
2018-09-06T00:41:28.098Z,23.7
2018-09-06T00:42:33.769Z,23.7
2018-09-06T00:43:39.272Z,23.7
2018-09-06T00:44:44.436Z,23.7
2018-09-06T00:45:49.904Z,23.7
2018-09-06T00:46:55.162Z,23.7
2018-09-06T00:48:00.693Z,23.7
2018-09-06T00:49:05.533Z,23.7
2018-09-06T00:50:10.973Z,23.7
2018-09-06T00:51:15.849Z,23.7
2018-09-06T00:52:20.678Z,23.7
2018-09-06T00:53:26.136Z,23.7
2018-09-06T00:54:31.894Z,23.7
2018-09-06T00:55:37.081Z,23.7
2018-09-06T00:56:41.934Z,23.7
2018-09-06T00:57:47.487Z,23.7
2018-09-06T00:58:52.664Z,23.7
2018-09-06T00:59:57.538Z,23.7
2018-09-06T01:01:03.283Z,23.7
2018-09-06T01:02:08.180Z,23.7
2018-09-06T01:03:12.749Z,23.7
2018-09-06T01:04:18.065Z,23.7
2018-09-06T01:05:22.633Z,23.7
2018-09-06T01:06:28.086Z,23.7
2018-09-06T01:07:32.951Z,23.7
2018-09-06T01:08:38.465Z,23.7
2018-09-06T01:09:43.594Z,23.7
2018-09-06T01:10:48.812Z,23.7
2018-09-06T01:11:53.953Z,23.7
2018-09-06T01:12:59.306Z,23.7
2018-09-06T01:14:04.260Z,23.7
2018-09-06T01:15:09.247Z,23.7
2018-09-06T01:16:14.927Z,23.7
2018-09-06T01:17:20.123Z,23.7
2018-09-06T01:18:24.731Z,23.7
2018-09-06T01:19:44.535Z,23.7
2018-09-06T01:20:49.750Z,23.7
2018-09-06T01:21:55.590Z,23.7
2018-09-06T01:23:01.115Z,23.7
2018-09-06T01:24:05.530Z,23.7
2018-09-06T01:25:11.714Z,23.7
2018-09-06T01:26:17.282Z,23.7
2018-09-06T01:27:22.434Z,23.7
2018-09-06T01:28:42.772Z,23.7
2018-09-06T01:29:47.934Z,23.7
2018-09-06T01:30:53.337Z,23.7
2018-09-06T01:31:58.199Z,23.7
2018-09-06T01:33:03.467Z,23.7
2018-09-06T01:34:09.206Z,23.7
2018-09-06T01:35:14.352Z,23.7
2018-09-06T01:36:19.587Z,23.7
2018-09-06T01:37:24.781Z,23.7
2018-09-06T01:38:30.060Z,23.7
2018-09-06T01:39:36.027Z,23.7
2018-09-06T01:40:41.177Z,23.7
2018-09-06T01:41:46.350Z,23.7
2018-09-06T01:42:51.858Z,23.7
2018-09-06T01:43:56.745Z,23.7
2018-09-06T01:45:01.610Z,23.7
2018-09-06T01:46:06.653Z,23.7
2018-09-06T01:47:11.320Z,23.7
2018-09-06T01:48:16.528Z,23.7
2018-09-06T01:49:21.687Z,23.7
2018-09-06T01:50:27.089Z,23.7
2018-09-06T01:51:32.171Z,23.7
2018-09-06T01:52:37.653Z,23.7
2018-09-06T01:53:42.808Z,23.7
2018-09-06T01:54:48.420Z,23.7
2018-09-06T01:55:53.278Z,23.7
2018-09-06T01:56:58.451Z,23.7
2018-09-06T01:58:04.132Z,23.7
2018-09-06T01:59:09.314Z,23.7
2018-09-06T02:00:14.484Z,23.7
2018-09-06T02:01:19.479Z,23.7
2018-09-06T02:02:24.680Z,23.7
2018-09-06T02:03:30.525Z,23.7
2018-09-06T02:04:35.396Z,23.7
2018-09-06T02:05:40.550Z,23.7
2018-09-06T02:06:46.056Z,23.7
2018-09-06T02:07:50.958Z,23.7
2018-09-06T02:08:56.088Z,23.7
2018-09-06T02:10:01.837Z,23.7
2018-09-06T02:11:06.451Z,23.7
2018-09-06T02:12:11.868Z,23.7
2018-09-06T02:13:17.574Z,23.7
2018-09-06T02:14:22.717Z,23.7
2018-09-06T02:15:28.723Z,23.7
2018-09-06T02:16:33.341Z,23.7
2018-09-06T02:17:38.483Z,23.7
2018-09-06T02:18:44.163Z,23.7
2018-09-06T02:19:49.641Z,23.7
2018-09-06T02:20:54.804Z,23.7
2018-09-06T02:22:00.199Z,23.7
2018-09-06T02:23:05.686Z,23.7
2018-09-06T02:24:10.840Z,23.7
2018-09-06T02:25:16.711Z,23.7
2018-09-06T02:26:21.863Z,23.7
2018-09-06T02:27:27.744Z,23.7
2018-09-06T02:28:32.331Z,23.7
2018-09-06T02:29:37.301Z,23.7
2018-09-06T02:30:42.859Z,23.7
2018-09-06T02:31:48.289Z,23.7
2018-09-06T02:32:53.558Z,23.7
2018-09-06T02:33:59.451Z,23.7
2018-09-06T02:35:04.605Z,23.7
2018-09-06T02:36:09.827Z,23.7
2018-09-06T02:37:15.337Z,23.7
2018-09-06T02:38:20.764Z,23.7
2018-09-06T02:39:25.352Z,23.7
2018-09-06T02:40:31.325Z,23.7
2018-09-06T02:41:36.787Z,23.7
2018-09-06T02:42:42.664Z,23.7
2018-09-06T02:43:47.918Z,23.7
2018-09-06T02:44:52.818Z,23.7
2018-09-06T02:45:58.227Z,23.7
2018-09-06T02:47:03.379Z,23.7
2018-09-06T02:48:08.861Z,23.7
2018-09-06T02:49:14.276Z,23.7
2018-09-06T02:50:19.758Z,23.7
2018-09-06T02:51:25.805Z,23.7
2018-09-06T02:52:32.014Z,23.7
2018-09-06T02:53:36.878Z,23.7
2018-09-06T02:54:42.509Z,23.7
2018-09-06T02:55:47.655Z,23.7
2018-09-06T02:56:53.128Z,23.7
2018-09-06T02:57:58.809Z,23.7
2018-09-06T02:59:04.292Z,23.7
2018-09-06T03:00:09.521Z,23.7
2018-09-06T03:01:14.981Z,23.7
2018-09-06T03:02:20.451Z,23.7
2018-09-06T03:03:26.344Z,23.7
2018-09-06T03:04:31.999Z,23.7
2018-09-06T03:05:37.140Z,23.7
2018-09-06T03:06:42.978Z,23.7
2018-09-06T03:07:48.451Z,23.7
2018-09-06T03:08:53.318Z,23.7
2018-09-06T03:09:59.118Z,23.7
2018-09-06T03:11:04.083Z,23.7
2018-09-06T03:12:08.947Z,23.7
2018-09-06T03:13:14.669Z,23.7
2018-09-06T03:14:19.834Z,23.7
2018-09-06T03:15:25.216Z,23.7
2018-09-06T03:16:31.941Z,23.7
2018-09-06T03:17:36.249Z,23.7
2018-09-06T03:18:41.815Z,23.7
2018-09-06T03:19:47.247Z,23.7
2018-09-06T03:20:52.387Z,23.7
2018-09-06T03:21:57.996Z,23.7
2018-09-06T03:23:03.166Z,23.7
2018-09-06T03:24:08.600Z,23.7
2018-09-06T03:25:13.711Z,23.7
2018-09-06T03:26:19.145Z,23.7
2018-09-06T03:27:24.608Z,23.7
2018-09-06T03:28:44.393Z,23.7
2018-09-06T03:29:49.538Z,23.7
2018-09-06T03:30:55.098Z,23.7
2018-09-06T03:32:00.248Z,23.7
2018-09-06T03:33:04.835Z,23.7
2018-09-06T03:34:10.520Z,23.7
2018-09-06T03:35:15.662Z,23.7
2018-09-06T03:36:20.297Z,23.7
2018-09-06T03:37:26.290Z,23.6
2018-09-06T03:38:31.149Z,23.6
2018-09-06T03:39:36.540Z,23.6
2018-09-06T03:40:41.419Z,23.6
2018-09-06T03:41:46.847Z,23.6
2018-09-06T03:42:52.692Z,23.6
2018-09-06T03:43:58.159Z,23.6
2018-09-06T03:45:02.735Z,23.6
2018-09-06T03:46:08.391Z,23.6
2018-09-06T03:47:13.523Z,23.6
2018-09-06T03:48:18.389Z,23.6
2018-09-06T03:49:24.112Z,23.6
2018-09-06T03:50:28.688Z,23.6
2018-09-06T03:51:34.198Z,23.6
2018-09-06T03:52:39.449Z,23.6
2018-09-06T03:53:44.880Z,23.6
2018-09-06T03:54:50.649Z,23.6
2018-09-06T03:55:56.157Z,23.6
2018-09-06T03:57:01.018Z,23.6
2018-09-06T03:58:06.243Z,23.6
2018-09-06T03:59:11.506Z,23.6
2018-09-06T04:00:16.655Z,23.6
2018-09-06T04:01:21.917Z,23.6
2018-09-06T04:02:27.439Z,23.6
2018-09-06T04:03:32.444Z,23.5
2018-09-06T04:04:37.682Z,23.4
2018-09-06T04:05:42.863Z,23.4
2018-09-06T04:06:48.616Z,23.3
2018-09-06T04:07:53.529Z,23.3
2018-09-06T04:08:58.771Z,23.3
2018-09-06T04:10:04.489Z,23.2
2018-09-06T04:11:09.649Z,23.1
2018-09-06T04:12:14.513Z,23.1
2018-09-06T04:13:20.192Z,23.1
2018-09-06T04:14:25.723Z,23
2018-09-06T04:15:30.718Z,23
2018-09-06T04:16:36.185Z,22.9
2018-09-06T04:17:41.154Z,22.9
2018-09-06T04:18:46.119Z,22.9
2018-09-06T04:19:51.550Z,22.8
2018-09-06T04:20:57.034Z,22.7
2018-09-06T04:22:02.166Z,22.7
2018-09-06T04:23:07.313Z,22.7
2018-09-06T04:24:11.985Z,22.7
2018-09-06T04:25:17.644Z,22.6
2018-09-06T04:26:22.822Z,22.6
2018-09-06T04:27:28.373Z,22.5
2018-09-06T04:28:33.238Z,22.5
2018-09-06T04:29:38.741Z,22.5
2018-09-06T04:30:44.261Z,22.4
2018-09-06T04:31:49.730Z,22.4
2018-09-06T04:32:54.322Z,22.4
2018-09-06T04:33:59.829Z,22.3
2018-09-06T04:35:04.447Z,22.3
2018-09-06T04:36:10.013Z,22.3
2018-09-06T04:37:16.000Z,22.2
2018-09-06T04:38:21.153Z,22.2
2018-09-06T04:40:46.115Z,22.2
2018-09-06T04:41:51.277Z,22.1
2018-09-06T04:42:56.405Z,22.1
2018-09-06T04:44:01.592Z,22.1
2018-09-06T04:45:06.807Z,22.1
2018-09-06T04:46:12.262Z,22.1
2018-09-06T04:47:16.838Z,22.1
2018-09-06T04:48:21.748Z,22
2018-09-06T04:49:27.758Z,22
2018-09-06T04:50:33.185Z,22
2018-09-06T04:51:39.228Z,21.9
2018-09-06T04:52:44.756Z,21.9
2018-09-06T04:53:50.182Z,21.9
2018-09-06T04:54:54.945Z,21.9
2018-09-06T04:56:00.129Z,21.9
2018-09-06T04:57:04.727Z,21.9
2018-09-06T04:58:09.941Z,21.8
2018-09-06T04:59:15.109Z,21.8
2018-09-06T05:00:20.257Z,21.8
2018-09-06T05:01:25.701Z,21.8
2018-09-06T05:02:30.855Z,21.8
2018-09-06T05:03:36.420Z,21.8
2018-09-06T05:04:41.852Z,21.7
2018-09-06T05:05:47.021Z,21.7
2018-09-06T05:06:52.552Z,21.7
2018-09-06T05:07:57.421Z,21.7
2018-09-06T05:09:02.274Z,21.7
2018-09-06T05:10:07.238Z,21.7
2018-09-06T05:11:12.165Z,21.7
2018-09-06T05:12:17.335Z,21.6
2018-09-06T05:13:22.600Z,21.6
2018-09-06T05:14:27.174Z,21.6
2018-09-06T05:15:32.013Z,21.6
2018-09-06T05:16:37.445Z,21.6
2018-09-06T05:17:42.595Z,21.6
2018-09-06T05:18:48.149Z,21.6
2018-09-06T05:19:53.999Z,21.5
2018-09-06T05:20:59.159Z,21.5
2018-09-06T05:22:04.634Z,21.5
2018-09-06T05:23:10.511Z,21.5
2018-09-06T05:24:15.385Z,21.5
2018-09-06T05:25:21.090Z,21.5
2018-09-06T05:26:26.552Z,21.5
2018-09-06T05:27:31.668Z,21.5
2018-09-06T05:28:36.864Z,21.5
2018-09-06T05:29:41.779Z,21.5
2018-09-06T05:30:47.261Z,21.4
2018-09-06T05:31:53.324Z,21.4
2018-09-06T05:32:58.231Z,21.4
2018-09-06T05:34:03.945Z,21.4
2018-09-06T05:35:08.859Z,21.4
2018-09-06T05:36:15.079Z,21.4
2018-09-06T05:37:21.884Z,21.4
2018-09-06T05:38:27.308Z,21.4
2018-09-06T05:39:33.505Z,21.4
2018-09-06T05:40:38.972Z,21.3
2018-09-06T05:41:44.116Z,21.3
2018-09-06T05:42:49.822Z,21.3
2018-09-06T05:43:54.973Z,21.3
2018-09-06T05:45:00.139Z,21.3
2018-09-06T05:46:05.565Z,21.3
2018-09-06T05:47:11.001Z,21.3
2018-09-06T05:48:16.170Z,21.4
2018-09-06T05:49:21.849Z,21.4
2018-09-06T05:50:27.013Z,21.4
2018-09-06T05:51:32.944Z,21.4
2018-09-06T05:52:37.275Z,21.4
2018-09-06T05:53:42.706Z,21.4
2018-09-06T05:54:48.561Z,21.4
2018-09-06T05:55:53.618Z,21.4
2018-09-06T05:56:58.787Z,21.3
2018-09-06T05:58:04.787Z,21.3
2018-09-06T05:59:10.758Z,21.3
2018-09-06T06:00:15.933Z,21.3
2018-09-06T06:01:21.431Z,21.3
2018-09-06T06:02:26.863Z,21.3
2018-09-06T06:03:32.164Z,21.3
2018-09-06T06:04:37.704Z,21.3
2018-09-06T06:05:43.197Z,21.3
2018-09-06T06:06:48.416Z,21.3
2018-09-06T06:07:53.636Z,21.3
2018-09-06T06:08:58.570Z,21.3
2018-09-06T06:10:04.013Z,21.3
2018-09-06T06:11:09.568Z,21.3
2018-09-06T06:12:14.997Z,21.3
2018-09-06T06:13:20.100Z,21.3
2018-09-06T06:14:25.298Z,21.3
2018-09-06T06:15:30.553Z,21.2
2018-09-06T06:16:36.038Z,21.2
2018-09-06T06:17:40.948Z,21.2
2018-09-06T06:18:46.844Z,21.2
2018-09-06T06:19:52.114Z,21.2
2018-09-06T06:20:57.434Z,21.1
2018-09-06T06:22:02.571Z,21.1
2018-09-06T06:23:07.709Z,21.1
2018-09-06T06:24:13.340Z,21.1
2018-09-06T06:25:19.116Z,21.1
2018-09-06T06:26:24.248Z,21.1
2018-09-06T06:27:30.200Z,21.1
2018-09-06T06:28:35.658Z,21.1
2018-09-06T06:29:41.084Z,21.1
2018-09-06T06:30:46.893Z,21.1
2018-09-06T06:31:51.801Z,21.1
2018-09-06T06:32:56.508Z,21.1
2018-09-06T06:34:02.133Z,21.1
2018-09-06T06:35:07.574Z,21.1
2018-09-06T06:36:13.006Z,21
2018-09-06T06:37:18.684Z,21
2018-09-06T06:38:24.117Z,21
2018-09-06T06:39:29.627Z,21
2018-09-06T06:40:35.176Z,21
2018-09-06T06:41:40.256Z,21
2018-09-06T06:42:45.642Z,21
2018-09-06T06:43:50.835Z,21
2018-09-06T06:44:55.693Z,21
2018-09-06T06:46:00.829Z,21
2018-09-06T06:47:05.696Z,21
2018-09-06T06:48:10.630Z,21
2018-09-06T06:49:15.736Z,21
2018-09-06T06:50:20.092Z,21
2018-09-06T06:52:45.615Z,21
2018-09-06T06:53:51.122Z,21
2018-09-06T06:54:56.493Z,21
2018-09-06T06:56:01.645Z,21
2018-09-06T06:57:06.898Z,21
2018-09-06T06:58:12.323Z,21
2018-09-06T06:59:17.483Z,21
2018-09-06T07:00:22.628Z,21
2018-09-06T07:01:28.328Z,21
2018-09-06T07:02:33.318Z,21
2018-09-06T07:03:38.197Z,21
2018-09-06T07:04:43.420Z,21
2018-09-06T07:05:48.021Z,21
2018-09-06T07:06:53.221Z,20.9
2018-09-06T07:07:59.296Z,20.9
2018-09-06T07:09:04.170Z,20.9
2018-09-06T07:10:09.006Z,20.9
2018-09-06T07:11:14.001Z,20.9
2018-09-06T07:12:19.463Z,20.9
2018-09-06T07:13:25.113Z,20.9
2018-09-06T07:14:30.258Z,21
2018-09-06T07:15:35.873Z,20.9
2018-09-06T07:16:41.012Z,20.9
2018-09-06T07:17:46.148Z,20.9
2018-09-06T07:18:51.602Z,20.9
2018-09-06T07:19:56.765Z,20.9
2018-09-06T07:21:02.073Z,20.9
2018-09-06T07:22:07.783Z,20.9
2018-09-06T07:23:13.216Z,20.9
2018-09-06T07:24:18.359Z,20.9
2018-09-06T07:25:24.012Z,20.9
2018-09-06T07:26:29.448Z,20.9
2018-09-06T07:27:34.579Z,20.9
2018-09-06T07:28:40.066Z,20.9
2018-09-06T07:29:45.598Z,20.9
2018-09-06T07:30:50.792Z,20.9
2018-09-06T07:31:55.939Z,20.9
2018-09-06T07:33:00.586Z,20.9
2018-09-06T07:34:05.230Z,20.9
2018-09-06T07:35:10.709Z,20.9
2018-09-06T07:36:16.001Z,20.9
2018-09-06T07:37:21.515Z,20.9
2018-09-06T07:38:26.966Z,20.9
2018-09-06T07:39:32.674Z,20.9
2018-09-06T07:40:37.832Z,20.9
2018-09-06T07:41:43.275Z,20.9
2018-09-06T07:42:49.163Z,20.9
2018-09-06T07:43:54.320Z,20.9
2018-09-06T07:44:58.918Z,20.9
2018-09-06T07:46:04.389Z,20.9
2018-09-06T07:47:08.975Z,20.9
2018-09-06T07:48:14.465Z,20.9
2018-09-06T07:49:20.358Z,20.8
2018-09-06T07:50:25.004Z,20.9
2018-09-06T07:51:30.880Z,20.9
2018-09-06T07:52:36.582Z,20.9
2018-09-06T07:53:41.740Z,20.9
2018-09-06T07:54:47.189Z,20.9
2018-09-06T07:55:51.838Z,20.9
2018-09-06T07:56:57.048Z,20.8
2018-09-06T07:58:02.598Z,20.8
2018-09-06T07:59:07.501Z,20.9
2018-09-06T08:00:12.095Z,20.9
2018-09-06T08:01:17.777Z,20.9
2018-09-06T08:02:23.239Z,21
2018-09-06T08:03:28.352Z,21
2018-09-06T08:04:33.589Z,21
2018-09-06T08:05:38.759Z,21
2018-09-06T08:06:44.544Z,21.1
2018-09-06T08:07:49.725Z,21.1
2018-09-06T08:08:54.879Z,21.1
2018-09-06T08:10:00.015Z,21.1
2018-09-06T08:11:04.913Z,21.1
2018-09-06T08:12:09.903Z,21.2
2018-09-06T08:13:16.181Z,21.2
2018-09-06T08:14:21.713Z,21.2
2018-09-06T08:15:27.565Z,21.2
2018-09-06T08:16:32.436Z,21.2
2018-09-06T08:17:37.312Z,21.3
2018-09-06T08:18:42.210Z,21.3
2018-09-06T08:19:47.907Z,21.3
2018-09-06T08:20:53.051Z,21.3
2018-09-06T08:21:58.205Z,21.3
2018-09-06T08:23:03.358Z,21.3
2018-09-06T08:24:08.836Z,21.3
2018-09-06T08:25:14.411Z,21.4
2018-09-06T08:26:19.311Z,21.4
2018-09-06T08:27:24.743Z,21.4
2018-09-06T08:28:44.516Z,21.4
2018-09-06T08:29:49.697Z,21.4
2018-09-06T08:30:55.217Z,21.4
2018-09-06T08:32:00.712Z,21.5
2018-09-06T08:33:05.010Z,21.5
2018-09-06T08:34:10.793Z,21.5
2018-09-06T08:35:16.221Z,21.5
2018-09-06T08:36:21.375Z,21.5
2018-09-06T08:37:41.421Z,21.5
2018-09-06T08:38:46.938Z,21.5
2018-09-06T08:39:52.750Z,21.5
2018-09-06T08:40:57.659Z,21.5
2018-09-06T08:42:03.138Z,21.5
2018-09-06T08:43:08.686Z,21.5
2018-09-06T08:44:14.143Z,21.6
2018-09-06T08:45:19.596Z,21.6
2018-09-06T08:46:25.411Z,21.6
2018-09-06T08:47:30.612Z,21.6
2018-09-06T08:48:36.749Z,21.6
2018-09-06T08:49:41.912Z,21.6
2018-09-06T08:50:47.107Z,21.6
2018-09-06T08:51:52.597Z,21.6
2018-09-06T08:52:57.574Z,21.6
2018-09-06T08:54:01.868Z,21.6
2018-09-06T08:55:06.887Z,21.6
2018-09-06T08:56:11.838Z,21.6
2018-09-06T08:57:16.430Z,21.6
2018-09-06T08:58:21.876Z,21.7
2018-09-06T08:59:27.684Z,21.7
2018-09-06T09:00:33.293Z,21.7
2018-09-06T09:01:38.157Z,21.7
2018-09-06T09:02:43.833Z,21.7
2018-09-06T09:03:50.459Z,21.7
2018-09-06T09:04:55.461Z,21.7
2018-09-06T09:06:00.977Z,21.7
2018-09-06T09:07:06.251Z,21.7
2018-09-06T09:08:10.566Z,21.7
2018-09-06T09:09:16.078Z,21.7
2018-09-06T09:10:21.547Z,21.7
2018-09-06T09:11:26.121Z,21.7
2018-09-06T09:12:31.618Z,21.7
2018-09-06T09:13:37.264Z,21.7
2018-09-06T09:14:42.720Z,21.7
2018-09-06T09:15:48.220Z,21.8
2018-09-06T09:16:53.194Z,21.7
2018-09-06T09:17:58.649Z,21.8
2018-09-06T09:19:04.079Z,21.8
2018-09-06T09:20:08.656Z,21.8
2018-09-06T09:21:13.816Z,21.8
2018-09-06T09:22:19.335Z,21.8
2018-09-06T09:23:24.664Z,21.8
2018-09-06T09:24:29.909Z,21.8
2018-09-06T09:25:34.869Z,21.8
2018-09-06T09:26:40.783Z,21.8
2018-09-06T09:27:46.793Z,21.8
2018-09-06T09:28:51.962Z,21.8
2018-09-06T09:29:56.335Z,21.8
2018-09-06T09:31:01.833Z,21.8
2018-09-06T09:32:06.796Z,21.9
2018-09-06T09:33:11.934Z,21.8
2018-09-06T09:34:16.862Z,21.9
2018-09-06T09:35:22.047Z,21.9
2018-09-06T09:36:27.592Z,21.8
2018-09-06T09:37:32.748Z,21.9
2018-09-06T09:38:38.295Z,21.9
2018-09-06T09:39:43.706Z,21.9
2018-09-06T09:40:48.855Z,21.8
2018-09-06T09:41:53.764Z,21.8
2018-09-06T09:42:59.173Z,21.9
2018-09-06T09:44:04.404Z,21.8
2018-09-06T09:45:09.585Z,21.9
2018-09-06T09:48:22.400Z,21.9
2018-09-06T09:49:28.587Z,21.8
2018-09-06T09:51:37.714Z,21.8
2018-09-06T09:52:42.938Z,21.8
2018-09-06T09:53:48.387Z,21.8
2018-09-06T09:54:54.006Z,21.8
2018-09-06T09:55:58.913Z,21.9
2018-09-06T09:57:04.088Z,21.8
2018-09-06T09:58:09.866Z,21.9
2018-09-06T09:59:15.040Z,21.8
2018-09-06T10:00:20.207Z,21.8
2018-09-06T10:01:24.754Z,21.8
2018-09-06T10:02:29.906Z,21.9
2018-09-06T10:03:34.763Z,21.8
2018-09-06T10:04:40.216Z,21.9
2018-09-06T10:05:45.846Z,21.8
2018-09-06T10:06:51.589Z,21.9
2018-09-06T10:07:56.549Z,21.9
2018-09-06T10:09:01.980Z,21.9
2018-09-06T10:10:07.240Z,21.8
2018-09-06T10:11:12.418Z,21.8
2018-09-06T10:12:17.806Z,21.9
2018-09-06T10:13:23.559Z,21.8
2018-09-06T10:14:28.987Z,21.8
2018-09-06T10:15:34.429Z,21.9
2018-09-06T10:16:39.573Z,21.8
2018-09-06T10:17:44.807Z,21.8
2018-09-06T10:18:50.252Z,21.8
2018-09-06T10:19:55.405Z,21.8
2018-09-06T10:20:59.986Z,21.8
2018-09-06T10:22:05.239Z,21.8
2018-09-06T10:23:10.472Z,21.8
2018-09-06T10:24:15.623Z,21.8
2018-09-06T10:25:21.176Z,21.8
2018-09-06T10:26:26.112Z,21.8
2018-09-06T10:27:31.587Z,21.8
2018-09-06T10:28:36.831Z,21.8
2018-09-06T10:29:42.275Z,21.8
2018-09-06T10:30:47.790Z,21.8
2018-09-06T10:31:53.341Z,21.8
2018-09-06T10:32:58.542Z,21.8
2018-09-06T10:34:04.222Z,21.8
2018-09-06T10:35:09.479Z,21.8
2018-09-06T10:36:14.986Z,21.8
2018-09-06T10:37:20.769Z,21.8
2018-09-06T10:38:25.649Z,21.8
2018-09-06T10:39:31.584Z,21.8
2018-09-06T10:40:36.981Z,21.8
2018-09-06T10:41:42.783Z,21.8
2018-09-06T10:42:47.771Z,21.8
2018-09-06T10:43:53.185Z,21.8
2018-09-06T10:44:58.047Z,21.9
2018-09-06T10:46:03.083Z,21.8
2018-09-06T10:47:08.493Z,21.8
2018-09-06T10:48:13.670Z,21.8
2018-09-06T10:49:19.118Z,21.9
2018-09-06T10:50:24.585Z,21.8
2018-09-06T10:51:29.572Z,21.9
2018-09-06T10:52:34.767Z,21.9
2018-09-06T10:53:39.366Z,21.9
2018-09-06T10:54:45.109Z,21.9
2018-09-06T10:55:50.288Z,21.9
2018-09-06T10:56:55.159Z,21.9
2018-09-06T10:58:01.083Z,21.9
2018-09-06T10:59:06.247Z,21.9
2018-09-06T11:00:11.422Z,21.9
2018-09-06T11:01:16.530Z,21.9
2018-09-06T11:02:21.394Z,21.9
2018-09-06T11:03:26.968Z,21.9
2018-09-06T11:04:31.582Z,21.9
2018-09-06T11:05:36.198Z,21.9
2018-09-06T11:06:41.813Z,21.9
2018-09-06T11:07:47.043Z,21.9
2018-09-06T11:08:52.627Z,21.9
2018-09-06T11:09:57.751Z,21.9
2018-09-06T11:11:03.244Z,21.9
2018-09-06T11:12:08.112Z,21.9
2018-09-06T11:13:14.128Z,21.9
2018-09-06T11:14:19.583Z,21.9
2018-09-06T11:15:25.521Z,21.9
2018-09-06T11:16:31.075Z,21.9
2018-09-06T11:17:35.698Z,21.9
2018-09-06T11:18:40.816Z,21.9
2018-09-06T11:19:47.165Z,21.9
2018-09-06T11:20:52.746Z,21.9
2018-09-06T11:21:58.379Z,21.9
2018-09-06T11:23:04.541Z,21.9
2018-09-06T11:24:09.400Z,21.9
2018-09-06T11:25:14.843Z,21.9
2018-09-06T11:26:20.016Z,21.9
2018-09-06T11:28:45.458Z,21.9
2018-09-06T11:29:50.370Z,21.9
2018-09-06T11:30:55.795Z,21.9
2018-09-06T11:32:00.988Z,21.9
2018-09-06T11:33:05.321Z,21.9
2018-09-06T11:34:11.106Z,21.9
2018-09-06T11:35:16.256Z,21.9
2018-09-06T11:36:21.762Z,21.9
2018-09-06T11:37:27.453Z,21.9
2018-09-06T11:38:33.123Z,21.9
2018-09-06T11:39:38.272Z,21.9
2018-09-06T11:40:43.413Z,21.9
2018-09-06T11:41:48.764Z,21.9
2018-09-06T11:42:53.914Z,21.9
2018-09-06T11:43:59.111Z,21.9
2018-09-06T11:45:03.982Z,21.9
2018-09-06T11:46:09.433Z,21.9
2018-09-06T11:47:14.956Z,21.9
2018-09-06T11:48:21.219Z,21.9
2018-09-06T11:49:27.208Z,21.9
2018-09-06T11:50:32.386Z,21.9
2018-09-06T11:51:37.996Z,21.9
2018-09-06T11:52:43.486Z,21.9
2018-09-06T11:53:48.627Z,21.9
2018-09-06T11:54:54.121Z,21.9
2018-09-06T11:55:59.305Z,21.9
2018-09-06T11:57:04.447Z,21.9
2018-09-06T11:58:09.639Z,21.9
2018-09-06T11:59:15.091Z,21.9
2018-09-06T12:00:20.259Z,21.9
2018-09-06T12:01:40.510Z,21.9
2018-09-06T12:02:45.391Z,21.9
2018-09-06T12:03:51.137Z,21.9
2018-09-06T12:04:56.323Z,21.9
2018-09-06T12:06:01.223Z,21.9
2018-09-06T12:07:06.169Z,21.9
2018-09-06T12:08:11.323Z,21.9
2018-09-06T12:09:16.226Z,21.9
2018-09-06T12:10:21.770Z,21.9
2018-09-06T12:11:26.911Z,21.9
2018-09-06T12:12:31.589Z,21.9
2018-09-06T12:13:36.465Z,21.9
2018-09-06T12:14:41.510Z,21.9
2018-09-06T12:15:47.027Z,21.9
2018-09-06T12:16:52.460Z,21.9
2018-09-06T12:17:57.646Z,21.9
2018-09-06T12:19:03.465Z,21.9
2018-09-06T12:20:08.618Z,21.9
2018-09-06T12:21:13.600Z,21.9
2018-09-06T12:22:18.785Z,21.9
2018-09-06T12:23:24.237Z,21.9
2018-09-06T12:24:29.664Z,21.9
2018-09-06T12:25:35.112Z,21.9
2018-09-06T12:26:39.954Z,21.9
2018-09-06T12:27:45.252Z,21.9
2018-09-06T12:28:50.474Z,21.9
2018-09-06T12:29:55.052Z,21.9
2018-09-06T12:31:00.734Z,21.9
2018-09-06T12:32:05.926Z,21.9
2018-09-06T12:33:11.370Z,21.8
2018-09-06T12:34:17.342Z,21.9
2018-09-06T12:35:22.253Z,21.9
2018-09-06T12:36:27.422Z,21.9
2018-09-06T12:37:32.308Z,21.8
2018-09-06T12:38:37.486Z,21.8
2018-09-06T12:39:43.096Z,21.9
2018-09-06T12:40:48.248Z,21.8
2018-09-06T12:41:53.693Z,21.8
2018-09-06T12:42:58.813Z,21.8
2018-09-06T12:44:04.271Z,21.8
2018-09-06T12:45:08.950Z,21.8
2018-09-06T12:46:14.727Z,21.8
2018-09-06T12:47:20.152Z,21.8
2018-09-06T12:48:25.869Z,21.8
2018-09-06T12:49:30.495Z,21.8
2018-09-06T12:50:36.506Z,21.8
2018-09-06T12:51:41.374Z,21.8
2018-09-06T12:52:46.227Z,21.8
2018-09-06T12:53:51.119Z,21.8
2018-09-06T12:54:56.660Z,21.8
2018-09-06T12:56:01.759Z,21.8
2018-09-06T12:57:06.630Z,21.8
2018-09-06T12:58:12.335Z,21.8
2018-09-06T12:59:16.935Z,21.8
2018-09-06T13:00:22.088Z,21.8
2018-09-06T13:01:42.479Z,21.8
2018-09-06T13:02:47.353Z,21.8
2018-09-06T13:03:52.484Z,21.8
2018-09-06T13:04:57.917Z,21.8
2018-09-06T13:06:02.893Z,21.8
2018-09-06T13:07:08.473Z,21.8
2018-09-06T13:08:13.673Z,21.8
2018-09-06T13:09:18.980Z,21.8
2018-09-06T13:10:24.407Z,21.8
2018-09-06T13:11:29.271Z,21.8
2018-09-06T13:12:34.670Z,21.8
2018-09-06T13:13:40.102Z,21.8
2018-09-06T13:14:45.747Z,21.8
2018-09-06T13:15:51.243Z,21.8
2018-09-06T13:16:56.407Z,21.8
2018-09-06T13:18:01.758Z,21.8
2018-09-06T13:19:07.661Z,21.8
2018-09-06T13:20:12.891Z,21.8
2018-09-06T13:21:18.039Z,21.8
2018-09-06T13:22:23.340Z,21.8
2018-09-06T13:23:28.778Z,21.8
2018-09-06T13:24:34.495Z,21.8
2018-09-06T13:25:40.011Z,21.8
2018-09-06T13:26:44.897Z,21.8
2018-09-06T13:27:50.123Z,21.8
2018-09-06T13:28:55.273Z,21.8
2018-09-06T13:30:00.185Z,21.8
2018-09-06T13:31:05.605Z,21.8
2018-09-06T13:32:11.114Z,21.8
2018-09-06T13:33:16.612Z,21.8
2018-09-06T13:34:22.423Z,21.8
2018-09-06T13:35:27.379Z,21.8
2018-09-06T13:36:32.752Z,21.8
2018-09-06T13:37:38.181Z,21.8
2018-09-06T13:38:43.055Z,21.8
2018-09-06T13:39:48.516Z,21.8
2018-09-06T13:40:53.664Z,21.8
2018-09-06T13:41:58.230Z,21.8
2018-09-06T13:43:04.073Z,21.8
2018-09-06T13:44:09.222Z,21.8
2018-09-06T13:45:15.128Z,21.8
2018-09-06T13:46:20.618Z,21.8
2018-09-06T13:47:25.794Z,21.8
2018-09-06T13:48:30.610Z,21.8
2018-09-06T13:49:35.785Z,21.8
2018-09-06T13:50:40.712Z,21.8
2018-09-06T13:51:45.833Z,21.7
2018-09-06T13:52:50.717Z,21.7
2018-09-06T13:53:55.855Z,21.7
2018-09-06T13:55:01.523Z,21.7
2018-09-06T13:56:06.153Z,21.7
2018-09-06T13:57:11.636Z,21.7
2018-09-06T13:58:17.417Z,21.7
2018-09-06T13:59:22.681Z,21.7
2018-09-06T14:00:27.846Z,21.7
2018-09-06T14:01:33.075Z,21.7
2018-09-06T14:02:37.979Z,21.7
2018-09-06T14:03:43.875Z,21.7
2018-09-06T14:04:48.501Z,21.7
2018-09-06T14:05:54.074Z,21.7
2018-09-06T14:06:59.759Z,21.7
2018-09-06T14:08:04.710Z,21.7
2018-09-06T14:09:09.937Z,21.7
2018-09-06T14:10:15.383Z,21.7
2018-09-06T14:11:20.603Z,21.7
2018-09-06T14:12:26.611Z,21.7
2018-09-06T14:13:32.064Z,21.7
2018-09-06T14:14:37.276Z,21.7
2018-09-06T14:15:42.721Z,21.7
2018-09-06T14:16:47.638Z,21.7
2018-09-06T14:17:53.003Z,21.7
2018-09-06T14:18:57.867Z,21.7
2018-09-06T14:20:03.532Z,21.7
2018-09-06T14:21:08.997Z,21.7
2018-09-06T14:22:14.433Z,21.7
2018-09-06T14:23:19.606Z,21.7
2018-09-06T14:25:45.214Z,21.7
2018-09-06T14:26:50.658Z,21.7
2018-09-06T14:27:56.139Z,21.7
2018-09-06T14:29:01.294Z,21.7
2018-09-06T14:30:06.723Z,21.7
2018-09-06T14:31:12.776Z,21.7
2018-09-06T14:32:17.925Z,21.7
2018-09-06T14:33:23.396Z,21.7
2018-09-06T14:34:43.741Z,21.7
2018-09-06T14:35:48.880Z,21.7
2018-09-06T14:36:53.810Z,21.7
2018-09-06T14:37:59.014Z,21.7
2018-09-06T14:39:04.272Z,21.7
2018-09-06T14:40:10.776Z,21.7
2018-09-06T14:41:15.987Z,21.7